sensor_id;sensor_type;location;lat;lon;timestamp;temperature;humidity
61253;DHT22;47127;47.516;8.596;2023-03-30T00:01:23;13.30;99.90
61253;DHT22;47127;47.516;8.596;2023-03-30T00:03:49;13.40;99.90
61253;DHT22;47127;47.516;8.596;2023-03-30T00:06:16;13.30;99.90
61253;DHT22;47127;47.516;8.596;2023-03-30T00:08:50;13.30;99.90
61253;DHT22;47127;47.516;8.596;2023-03-30T00:11:17;13.30;99.90
61253;DHT22;47127;47.516;8.596;2023-03-30T00:13:43;13.20;99.90
61253;DHT22;47127;47.516;8.596;2023-03-30T00:16:12;13.20;99.90
61253;DHT22;47127;47.516;8.596;2023-03-30T00:18:38;13.10;99.90
61253;DHT22;47127;47.516;8.596;2023-03-30T00:21:04;13.10;99.90
61253;DHT22;47127;47.516;8.596;2023-03-30T00:23:31;13.10;99.90
61253;DHT22;47127;47.516;8.596;2023-03-30T00:25:57;13.10;99.90
61253;DHT22;47127;47.516;8.596;2023-03-30T00:28:23;13.00;99.90
61253;DHT22;47127;47.516;8.596;2023-03-30T00:30:51;13.00;99.90
61253;DHT22;47127;47.516;8.596;2023-03-30T00:33:18;12.70;99.90
61253;DHT22;47127;47.516;8.596;2023-03-30T00:35:51;12.50;99.90
61253;DHT22;47127;47.516;8.596;2023-03-30T00:38:16;12.60;99.90
61253;DHT22;47127;47.516;8.596;2023-03-30T00:40:52;12.60;99.90
61253;DHT22;47127;47.516;8.596;2023-03-30T00:43:19;12.60;99.90
61253;DHT22;47127;47.516;8.596;2023-03-30T00:45:45;12.50;99.90
61253;DHT22;47127;47.516;8.596;2023-03-30T00:48:19;12.50;99.90
61253;DHT22;47127;47.516;8.596;2023-03-30T00:51:01;12.70;99.90
61253;DHT22;47127;47.516;8.596;2023-03-30T00:53:32;12.90;99.90
61253;DHT22;47127;47.516;8.596;2023-03-30T00:56:00;13.00;99.90
61253;DHT22;47127;47.516;8.596;2023-03-30T00:58:28;13.10;99.90
61253;DHT22;47127;47.516;8.596;2023-03-30T01:00:55;13.20;99.90
61253;DHT22;47127;47.516;8.596;2023-03-30T01:03:46;13.30;99.90
61253;DHT22;47127;47.516;8.596;2023-03-30T01:06:15;13.40;99.90
61253;DHT22;47127;47.516;8.596;2023-03-30T01:08:42;13.50;99.90
61253;DHT22;47127;47.516;8.596;2023-03-30T01:11:08;13.60;99.90
61253;DHT22;47127;47.516;8.596;2023-03-30T01:13:39;13.70;99.90
61253;DHT22;47127;47.516;8.596;2023-03-30T01:22:40;13.90;99.90
61253;DHT22;47127;47.516;8.596;2023-03-30T01:28:18;13.90;99.90
61253;DHT22;47127;47.516;8.596;2023-03-30T01:31:20;13.90;99.90
61253;DHT22;47127;47.516;8.596;2023-03-30T01:35:14;13.80;99.90
61253;DHT22;47127;47.516;8.596;2023-03-30T01:40:08;13.90;99.90
61253;DHT22;47127;47.516;8.596;2023-03-30T01:45:56;13.90;99.90
61253;DHT22;47127;47.516;8.596;2023-03-30T01:48:12;13.80;99.90
61253;DHT22;47127;47.516;8.596;2023-03-30T01:53:30;13.90;99.90
61253;DHT22;47127;47.516;8.596;2023-03-30T01:56:03;13.90;99.90
61253;DHT22;47127;47.516;8.596;2023-03-30T01:58:38;13.90;99.90
61253;DHT22;47127;47.516;8.596;2023-03-30T02:01:04;13.80;99.90
61253;DHT22;47127;47.516;8.596;2023-03-30T02:03:37;13.60;99.90
61253;DHT22;47127;47.516;8.596;2023-03-30T02:06:13;13.50;99.90
61253;DHT22;47127;47.516;8.596;2023-03-30T02:08:41;13.40;99.90
61253;DHT22;47127;47.516;8.596;2023-03-30T02:11:09;13.20;99.90
61253;DHT22;47127;47.516;8.596;2023-03-30T02:13:36;13.10;99.90
61253;DHT22;47127;47.516;8.596;2023-03-30T02:16:16;13.00;99.90
61253;DHT22;47127;47.516;8.596;2023-03-30T02:18:45;13.00;99.90
61253;DHT22;47127;47.516;8.596;2023-03-30T02:21:11;13.00;99.90
61253;DHT22;47127;47.516;8.596;2023-03-30T02:23:39;13.00;99.90
61253;DHT22;47127;47.516;8.596;2023-03-30T02:26:06;13.00;99.90
61253;DHT22;47127;47.516;8.596;2023-03-30T02:28:33;12.80;99.90
61253;DHT22;47127;47.516;8.596;2023-03-30T02:30:59;12.80;99.90
61253;DHT22;47127;47.516;8.596;2023-03-30T02:38:58;12.70;99.90
61253;DHT22;47127;47.516;8.596;2023-03-30T02:41:53;12.70;99.90
61253;DHT22;47127;47.516;8.596;2023-03-30T02:44:31;12.70;99.90
61253;DHT22;47127;47.516;8.596;2023-03-30T02:47:26;12.60;99.90
61253;DHT22;47127;47.516;8.596;2023-03-30T02:49:56;12.40;99.90
61253;DHT22;47127;47.516;8.596;2023-03-30T02:52:43;12.40;99.90
61253;DHT22;47127;47.516;8.596;2023-03-30T03:00:31;12.40;99.90
61253;DHT22;47127;47.516;8.596;2023-03-30T03:03:07;12.40;99.90
61253;DHT22;47127;47.516;8.596;2023-03-30T03:05:35;12.40;99.90
61253;DHT22;47127;47.516;8.596;2023-03-30T03:08:01;12.40;99.90
61253;DHT22;47127;47.516;8.596;2023-03-30T03:10:27;12.40;99.90
61253;DHT22;47127;47.516;8.596;2023-03-30T03:12:52;12.40;99.90
61253;DHT22;47127;47.516;8.596;2023-03-30T03:15:18;12.40;99.90
61253;DHT22;47127;47.516;8.596;2023-03-30T03:17:43;12.40;99.90
61253;DHT22;47127;47.516;8.596;2023-03-30T03:20:10;12.40;99.90
61253;DHT22;47127;47.516;8.596;2023-03-30T03:22:36;12.40;99.90
61253;DHT22;47127;47.516;8.596;2023-03-30T03:25:02;12.60;99.90
61253;DHT22;47127;47.516;8.596;2023-03-30T03:27:28;12.60;99.90
61253;DHT22;47127;47.516;8.596;2023-03-30T03:29:54;12.70;99.90
61253;DHT22;47127;47.516;8.596;2023-03-30T03:32:19;12.70;99.90
61253;DHT22;47127;47.516;8.596;2023-03-30T03:34:45;12.80;99.90
61253;DHT22;47127;47.516;8.596;2023-03-30T03:37:10;12.80;99.90
61253;DHT22;47127;47.516;8.596;2023-03-30T03:39:36;12.90;99.90
61253;DHT22;47127;47.516;8.596;2023-03-30T03:42:06;12.90;99.90
61253;DHT22;47127;47.516;8.596;2023-03-30T03:44:31;12.90;99.90
61253;DHT22;47127;47.516;8.596;2023-03-30T03:46:57;12.90;99.90
61253;DHT22;47127;47.516;8.596;2023-03-30T03:49:23;13.00;99.90
61253;DHT22;47127;47.516;8.596;2023-03-30T03:51:48;12.90;99.90
61253;DHT22;47127;47.516;8.596;2023-03-30T03:54:14;12.90;99.90
61253;DHT22;47127;47.516;8.596;2023-03-30T03:56:40;12.90;99.90
61253;DHT22;47127;47.516;8.596;2023-03-30T03:59:06;13.00;99.90
61253;DHT22;47127;47.516;8.596;2023-03-30T04:01:31;13.10;99.90
61253;DHT22;47127;47.516;8.596;2023-03-30T04:03:58;13.10;99.90
61253;DHT22;47127;47.516;8.596;2023-03-30T04:06:24;13.10;99.90
61253;DHT22;47127;47.516;8.596;2023-03-30T04:08:50;13.10;99.90
61253;DHT22;47127;47.516;8.596;2023-03-30T04:11:15;12.90;99.90
61253;DHT22;47127;47.516;8.596;2023-03-30T04:13:42;12.70;99.90
61253;DHT22;47127;47.516;8.596;2023-03-30T04:16:08;12.60;99.90
61253;DHT22;47127;47.516;8.596;2023-03-30T04:18:34;12.60;99.90
61253;DHT22;47127;47.516;8.596;2023-03-30T04:21:02;12.70;99.90
61253;DHT22;47127;47.516;8.596;2023-03-30T04:23:30;12.80;99.90
61253;DHT22;47127;47.516;8.596;2023-03-30T04:26:02;13.00;99.90
61253;DHT22;47127;47.516;8.596;2023-03-30T04:28:29;12.90;99.90
61253;DHT22;47127;47.516;8.596;2023-03-30T04:31:00;12.90;99.90
61253;DHT22;47127;47.516;8.596;2023-03-30T04:33:27;12.90;99.90
61253;DHT22;47127;47.516;8.596;2023-03-30T04:35:54;12.80;99.90
61253;DHT22;47127;47.516;8.596;2023-03-30T04:38:20;12.70;99.90
61253;DHT22;47127;47.516;8.596;2023-03-30T04:40:51;12.70;99.90
61253;DHT22;47127;47.516;8.596;2023-03-30T04:43:18;12.70;99.90
61253;DHT22;47127;47.516;8.596;2023-03-30T04:45:52;12.70;99.90
61253;DHT22;47127;47.516;8.596;2023-03-30T04:48:19;12.70;99.90
61253;DHT22;47127;47.516;8.596;2023-03-30T04:50:46;12.80;99.90
61253;DHT22;47127;47.516;8.596;2023-03-30T04:53:12;12.80;99.90
61253;DHT22;47127;47.516;8.596;2023-03-30T04:55:45;12.70;99.90
61253;DHT22;47127;47.516;8.596;2023-03-30T04:58:11;12.70;99.90
61253;DHT22;47127;47.516;8.596;2023-03-30T05:00:38;12.60;99.90
61253;DHT22;47127;47.516;8.596;2023-03-30T05:03:04;12.60;99.90
61253;DHT22;47127;47.516;8.596;2023-03-30T05:05:30;12.70;99.90
61253;DHT22;47127;47.516;8.596;2023-03-30T05:07:56;12.70;99.90
61253;DHT22;47127;47.516;8.596;2023-03-30T05:10:22;12.70;99.90
61253;DHT22;47127;47.516;8.596;2023-03-30T05:12:48;12.70;99.90
61253;DHT22;47127;47.516;8.596;2023-03-30T05:15:14;12.70;99.90
61253;DHT22;47127;47.516;8.596;2023-03-30T05:17:43;12.60;99.90
61253;DHT22;47127;47.516;8.596;2023-03-30T05:20:09;12.60;99.90
61253;DHT22;47127;47.516;8.596;2023-03-30T05:22:36;12.50;99.90
61253;DHT22;47127;47.516;8.596;2023-03-30T05:25:06;12.70;99.90
61253;DHT22;47127;47.516;8.596;2023-03-30T05:27:32;12.50;99.90
61253;DHT22;47127;47.516;8.596;2023-03-30T05:29:57;12.50;99.90
61253;DHT22;47127;47.516;8.596;2023-03-30T05:32:26;12.50;99.90
61253;DHT22;47127;47.516;8.596;2023-03-30T05:34:51;12.60;99.90
61253;DHT22;47127;47.516;8.596;2023-03-30T05:37:17;12.70;99.90
61253;DHT22;47127;47.516;8.596;2023-03-30T05:39:42;12.80;99.90
61253;DHT22;47127;47.516;8.596;2023-03-30T05:42:09;12.80;99.90
61253;DHT22;47127;47.516;8.596;2023-03-30T05:44:36;12.70;99.90
61253;DHT22;47127;47.516;8.596;2023-03-30T05:47:01;12.70;99.90
61253;DHT22;47127;47.516;8.596;2023-03-30T05:49:27;12.80;99.90
61253;DHT22;47127;47.516;8.596;2023-03-30T05:51:55;12.90;99.90
61253;DHT22;47127;47.516;8.596;2023-03-30T05:54:21;12.90;99.90
61253;DHT22;47127;47.516;8.596;2023-03-30T05:56:47;12.90;99.90
61253;DHT22;47127;47.516;8.596;2023-03-30T05:59:13;12.90;99.90
61253;DHT22;47127;47.516;8.596;2023-03-30T06:01:42;12.90;99.90
61253;DHT22;47127;47.516;8.596;2023-03-30T06:04:08;12.80;99.90
61253;DHT22;47127;47.516;8.596;2023-03-30T06:06:34;12.80;99.90
61253;DHT22;47127;47.516;8.596;2023-03-30T06:08:59;12.80;99.90
61253;DHT22;47127;47.516;8.596;2023-03-30T06:11:27;12.90;99.90
61253;DHT22;47127;47.516;8.596;2023-03-30T06:13:52;13.00;99.90
61253;DHT22;47127;47.516;8.596;2023-03-30T06:16:18;12.90;99.90
61253;DHT22;47127;47.516;8.596;2023-03-30T06:18:44;12.90;99.90
61253;DHT22;47127;47.516;8.596;2023-03-30T06:21:10;12.90;99.90
61253;DHT22;47127;47.516;8.596;2023-03-30T06:23:36;12.90;99.90
61253;DHT22;47127;47.516;8.596;2023-03-30T06:26:02;13.00;99.90
61253;DHT22;47127;47.516;8.596;2023-03-30T06:28:28;13.00;99.90
61253;DHT22;47127;47.516;8.596;2023-03-30T06:30:56;13.00;99.90
61253;DHT22;47127;47.516;8.596;2023-03-30T06:33:22;12.90;99.90
61253;DHT22;47127;47.516;8.596;2023-03-30T06:35:51;12.90;99.90
61253;DHT22;47127;47.516;8.596;2023-03-30T06:38:18;12.90;99.90
61253;DHT22;47127;47.516;8.596;2023-03-30T06:40:44;12.90;99.90
61253;DHT22;47127;47.516;8.596;2023-03-30T06:43:19;12.90;99.90
61253;DHT22;47127;47.516;8.596;2023-03-30T06:45:55;12.80;99.90
61253;DHT22;47127;47.516;8.596;2023-03-30T06:48:22;12.90;99.90
61253;DHT22;47127;47.516;8.596;2023-03-30T06:50:52;12.90;99.90
61253;DHT22;47127;47.516;8.596;2023-03-30T06:53:19;12.80;99.90
61253;DHT22;47127;47.516;8.596;2023-03-30T06:55:51;13.40;99.90
61253;DHT22;47127;47.516;8.596;2023-03-30T06:58:17;12.80;99.90
61253;DHT22;47127;47.516;8.596;2023-03-30T07:00:43;12.90;99.90
61253;DHT22;47127;47.516;8.596;2023-03-30T07:03:11;12.80;99.90
61253;DHT22;47127;47.516;8.596;2023-03-30T07:05:38;12.70;99.90
61253;DHT22;47127;47.516;8.596;2023-03-30T07:08:06;12.70;99.90
61253;DHT22;47127;47.516;8.596;2023-03-30T07:10:32;12.70;99.90
61253;DHT22;47127;47.516;8.596;2023-03-30T07:12:59;12.70;99.90
61253;DHT22;47127;47.516;8.596;2023-03-30T07:15:25;12.70;99.90
61253;DHT22;47127;47.516;8.596;2023-03-30T07:17:51;12.70;99.90
61253;DHT22;47127;47.516;8.596;2023-03-30T07:20:17;12.80;99.90
61253;DHT22;47127;47.516;8.596;2023-03-30T07:22:46;13.00;99.90
61253;DHT22;47127;47.516;8.596;2023-03-30T07:25:12;13.10;99.90
61253;DHT22;47127;47.516;8.596;2023-03-30T07:27:38;13.20;99.90
61253;DHT22;47127;47.516;8.596;2023-03-30T07:30:06;13.40;99.90
61253;DHT22;47127;47.516;8.596;2023-03-30T07:32:32;13.60;99.90
61253;DHT22;47127;47.516;8.596;2023-03-30T07:34:57;13.70;99.90
61253;DHT22;47127;47.516;8.596;2023-03-30T07:37:23;13.80;99.90
61253;DHT22;47127;47.516;8.596;2023-03-30T07:39:49;13.90;99.90
61253;DHT22;47127;47.516;8.596;2023-03-30T07:42:15;14.00;99.90
61253;DHT22;47127;47.516;8.596;2023-03-30T07:44:41;14.00;99.90
61253;DHT22;47127;47.516;8.596;2023-03-30T07:47:06;14.10;99.90
61253;DHT22;47127;47.516;8.596;2023-03-30T07:49:35;14.30;99.90
61253;DHT22;47127;47.516;8.596;2023-03-30T07:52:01;14.30;99.90
61253;DHT22;47127;47.516;8.596;2023-03-30T07:54:31;14.60;99.90
61253;DHT22;47127;47.516;8.596;2023-03-30T07:56:56;16.80;99.90
61253;DHT22;47127;47.516;8.596;2023-03-30T07:59:23;14.70;99.90
61253;DHT22;47127;47.516;8.596;2023-03-30T08:01:52;14.80;99.90
61253;DHT22;47127;47.516;8.596;2023-03-30T08:04:19;14.80;99.90
61253;DHT22;47127;47.516;8.596;2023-03-30T08:06:53;14.80;99.90
61253;DHT22;47127;47.516;8.596;2023-03-30T08:09:19;14.90;99.90
61253;DHT22;47127;47.516;8.596;2023-03-30T08:11:55;14.90;99.90
61253;DHT22;47127;47.516;8.596;2023-03-30T08:14:28;14.90;99.90
61253;DHT22;47127;47.516;8.596;2023-03-30T08:16:54;14.90;99.90
61253;DHT22;47127;47.516;8.596;2023-03-30T08:19:20;15.00;99.90
61253;DHT22;47127;47.516;8.596;2023-03-30T08:21:47;15.00;99.90
61253;DHT22;47127;47.516;8.596;2023-03-30T08:24:14;14.80;99.90
61253;DHT22;47127;47.516;8.596;2023-03-30T08:26:43;15.10;99.90
61253;DHT22;47127;47.516;8.596;2023-03-30T08:29:09;15.30;99.90
61253;DHT22;47127;47.516;8.596;2023-03-30T08:31:38;15.20;99.90
61253;DHT22;47127;47.516;8.596;2023-03-30T08:34:13;15.30;99.90
61253;DHT22;47127;47.516;8.596;2023-03-30T08:36:42;15.30;99.90
61253;DHT22;47127;47.516;8.596;2023-03-30T08:39:08;15.30;99.90
61253;DHT22;47127;47.516;8.596;2023-03-30T08:42:14;15.30;99.90
61253;DHT22;47127;47.516;8.596;2023-03-30T08:45:06;15.00;99.90
61253;DHT22;47127;47.516;8.596;2023-03-30T08:47:38;15.00;99.90
61253;DHT22;47127;47.516;8.596;2023-03-30T08:52:53;15.30;99.90
61253;DHT22;47127;47.516;8.596;2023-03-30T08:55:57;15.00;99.90
61253;DHT22;47127;47.516;8.596;2023-03-30T08:58:56;15.20;99.90
61253;DHT22;47127;47.516;8.596;2023-03-30T09:01:45;15.40;99.90
61253;DHT22;47127;47.516;8.596;2023-03-30T09:04:28;15.40;99.90
61253;DHT22;47127;47.516;8.596;2023-03-30T09:07:06;15.40;99.90
61253;DHT22;47127;47.516;8.596;2023-03-30T09:09:46;15.30;99.90
61253;DHT22;47127;47.516;8.596;2023-03-30T09:12:15;15.20;99.90
61253;DHT22;47127;47.516;8.596;2023-03-30T09:14:51;15.10;99.90
61253;DHT22;47127;47.516;8.596;2023-03-30T09:20:27;15.10;99.90
61253;DHT22;47127;47.516;8.596;2023-03-30T09:22:56;15.00;99.90
61253;DHT22;47127;47.516;8.596;2023-03-30T09:31:22;14.90;99.90
61253;DHT22;47127;47.516;8.596;2023-03-30T09:33:58;15.00;99.90
61253;DHT22;47127;47.516;8.596;2023-03-30T09:36:42;15.00;99.90
61253;DHT22;47127;47.516;8.596;2023-03-30T09:39:22;14.90;99.90
61253;DHT22;47127;47.516;8.596;2023-03-30T09:42:11;14.80;99.90
61253;DHT22;47127;47.516;8.596;2023-03-30T09:47:36;14.50;99.90
61253;DHT22;47127;47.516;8.596;2023-03-30T09:50:07;14.30;99.90
61253;DHT22;47127;47.516;8.596;2023-03-30T09:52:35;14.10;99.90
61253;DHT22;47127;47.516;8.596;2023-03-30T09:57:52;13.90;99.90
61253;DHT22;47127;47.516;8.596;2023-03-30T10:00:39;14.30;99.90
61253;DHT22;47127;47.516;8.596;2023-03-30T10:03:06;13.60;99.90
61253;DHT22;47127;47.516;8.596;2023-03-30T10:05:35;13.60;99.90
61253;DHT22;47127;47.516;8.596;2023-03-30T10:08:28;13.40;99.90
61253;DHT22;47127;47.516;8.596;2023-03-30T10:10:56;13.50;99.90
61253;DHT22;47127;47.516;8.596;2023-03-30T10:13:40;13.50;99.90
61253;DHT22;47127;47.516;8.596;2023-03-30T10:16:26;13.50;99.90
61253;DHT22;47127;47.516;8.596;2023-03-30T10:19:08;13.50;99.90
61253;DHT22;47127;47.516;8.596;2023-03-30T10:21:53;13.60;99.90
61253;DHT22;47127;47.516;8.596;2023-03-30T10:24:25;13.80;99.90
61253;DHT22;47127;47.516;8.596;2023-03-30T10:27:15;13.70;99.90
61253;DHT22;47127;47.516;8.596;2023-03-30T10:29:45;13.70;99.90
61253;DHT22;47127;47.516;8.596;2023-03-30T10:32:20;13.80;99.90
61253;DHT22;47127;47.516;8.596;2023-03-30T10:34:58;14.60;99.90
61253;DHT22;47127;47.516;8.596;2023-03-30T10:37:37;13.70;99.90
61253;DHT22;47127;47.516;8.596;2023-03-30T10:40:25;13.70;99.90
61253;DHT22;47127;47.516;8.596;2023-03-30T10:42:56;14.80;99.90
61253;DHT22;47127;47.516;8.596;2023-03-30T10:45:27;13.70;99.90
61253;DHT22;47127;47.516;8.596;2023-03-30T11:04:10;13.80;99.90
61253;DHT22;47127;47.516;8.596;2023-03-30T11:06:40;13.40;99.90
61253;DHT22;47127;47.516;8.596;2023-03-30T11:09:15;13.40;99.90
61253;DHT22;47127;47.516;8.596;2023-03-30T11:11:48;13.40;99.90
61253;DHT22;47127;47.516;8.596;2023-03-30T11:14:20;13.50;99.90
61253;DHT22;47127;47.516;8.596;2023-03-30T11:16:56;13.60;99.90
61253;DHT22;47127;47.516;8.596;2023-03-30T11:19:42;13.70;99.90
61253;DHT22;47127;47.516;8.596;2023-03-30T11:22:36;13.70;99.90
61253;DHT22;47127;47.516;8.596;2023-03-30T11:25:14;13.80;99.90
61253;DHT22;47127;47.516;8.596;2023-03-30T11:28:09;13.80;99.90
61253;DHT22;47127;47.516;8.596;2023-03-30T11:30:38;13.90;99.90
61253;DHT22;47127;47.516;8.596;2023-03-30T11:33:10;13.80;99.90
61253;DHT22;47127;47.516;8.596;2023-03-30T11:35:49;13.90;99.90
61253;DHT22;47127;47.516;8.596;2023-03-30T11:38:59;13.90;99.90
61253;DHT22;47127;47.516;8.596;2023-03-30T11:41:46;13.90;99.90
61253;DHT22;47127;47.516;8.596;2023-03-30T11:44:13;13.90;99.90
61253;DHT22;47127;47.516;8.596;2023-03-30T11:49:48;13.90;99.90
61253;DHT22;47127;47.516;8.596;2023-03-30T11:52:49;14.00;99.90
61253;DHT22;47127;47.516;8.596;2023-03-30T11:55:40;14.10;99.90
61253;DHT22;47127;47.516;8.596;2023-03-30T12:11:36;13.70;99.90
61253;DHT22;47127;47.516;8.596;2023-03-30T12:16:59;13.50;99.90
61253;DHT22;47127;47.516;8.596;2023-03-30T12:28:03;13.10;99.90
61253;DHT22;47127;47.516;8.596;2023-03-30T12:31:00;13.00;99.90
61253;DHT22;47127;47.516;8.596;2023-03-30T12:33:36;13.10;99.90
61253;DHT22;47127;47.516;8.596;2023-03-30T12:38:58;13.10;99.90
61253;DHT22;47127;47.516;8.596;2023-03-30T12:41:55;13.10;99.90
61253;DHT22;47127;47.516;8.596;2023-03-30T12:53:15;13.10;99.90
61253;DHT22;47127;47.516;8.596;2023-03-30T12:55:59;13.20;99.90
61253;DHT22;47127;47.516;8.596;2023-03-30T13:04:40;13.20;99.90
61253;DHT22;47127;47.516;8.596;2023-03-30T13:07:14;13.10;99.90
61253;DHT22;47127;47.516;8.596;2023-03-30T13:09:57;13.10;99.90
61253;DHT22;47127;47.516;8.596;2023-03-30T13:13:01;13.30;99.90
61253;DHT22;47127;47.516;8.596;2023-03-30T13:15:50;13.80;99.90
61253;DHT22;47127;47.516;8.596;2023-03-30T13:18:38;13.40;99.90
61253;DHT22;47127;47.516;8.596;2023-03-30T13:21:22;13.50;99.90
61253;DHT22;47127;47.516;8.596;2023-03-30T13:24:25;13.60;99.90
61253;DHT22;47127;47.516;8.596;2023-03-30T13:29:50;13.70;99.90
61253;DHT22;47127;47.516;8.596;2023-03-30T13:41:24;14.10;99.90
61253;DHT22;47127;47.516;8.596;2023-03-30T13:46:44;14.50;99.90
61253;DHT22;47127;47.516;8.596;2023-03-30T13:51:42;15.70;99.90
61253;DHT22;47127;47.516;8.596;2023-03-30T13:57:00;16.10;99.90
61253;DHT22;47127;47.516;8.596;2023-03-30T14:02:31;16.20;99.90
61253;DHT22;47127;47.516;8.596;2023-03-30T14:05:12;16.50;99.90
61253;DHT22;47127;47.516;8.596;2023-03-30T14:07:42;16.30;99.90
61253;DHT22;47127;47.516;8.596;2023-03-30T14:13:38;16.50;99.90
61253;DHT22;47127;47.516;8.596;2023-03-30T14:16:05;16.50;99.90
61253;DHT22;47127;47.516;8.596;2023-03-30T14:18:31;16.60;99.90
61253;DHT22;47127;47.516;8.596;2023-03-30T14:21:05;17.00;99.90
61253;DHT22;47127;47.516;8.596;2023-03-30T14:23:47;17.00;99.90
61253;DHT22;47127;47.516;8.596;2023-03-30T14:26:21;17.40;99.90
61253;DHT22;47127;47.516;8.596;2023-03-30T14:31:42;16.90;99.90
61253;DHT22;47127;47.516;8.596;2023-03-30T14:34:33;17.30;99.90
61253;DHT22;47127;47.516;8.596;2023-03-30T14:37:06;17.10;98.80
61253;DHT22;47127;47.516;8.596;2023-03-30T14:39:41;17.10;99.10
61253;DHT22;47127;47.516;8.596;2023-03-30T14:44:45;16.80;99.20
61253;DHT22;47127;47.516;8.596;2023-03-30T14:47:18;15.40;99.60
61253;DHT22;47127;47.516;8.596;2023-03-30T14:49:46;17.50;99.50
61253;DHT22;47127;47.516;8.596;2023-03-30T14:52:18;17.40;97.80
61253;DHT22;47127;47.516;8.596;2023-03-30T14:54:46;17.70;97.70
61253;DHT22;47127;47.516;8.596;2023-03-30T14:57:15;17.40;98.40
61253;DHT22;47127;47.516;8.596;2023-03-30T14:59:45;17.30;98.30
61253;DHT22;47127;47.516;8.596;2023-03-30T15:02:18;17.10;98.80
61253;DHT22;47127;47.516;8.596;2023-03-30T15:04:45;17.30;98.50
61253;DHT22;47127;47.516;8.596;2023-03-30T15:07:15;17.30;97.80
61253;DHT22;47127;47.516;8.596;2023-03-30T15:09:48;17.00;97.80
61253;DHT22;47127;47.516;8.596;2023-03-30T15:12:39;16.90;98.40
61253;DHT22;47127;47.516;8.596;2023-03-30T15:15:08;17.20;98.20
61253;DHT22;47127;47.516;8.596;2023-03-30T15:17:38;17.40;97.80
61253;DHT22;47127;47.516;8.596;2023-03-30T15:20:11;17.40;98.20
61253;DHT22;47127;47.516;8.596;2023-03-30T15:22:40;17.60;97.40
61253;DHT22;47127;47.516;8.596;2023-03-30T15:25:12;17.50;96.90
61253;DHT22;47127;47.516;8.596;2023-03-30T15:27:40;17.50;97.20
61253;DHT22;47127;47.516;8.596;2023-03-30T15:30:07;17.60;96.70
61253;DHT22;47127;47.516;8.596;2023-03-30T15:32:40;17.60;97.40
61253;DHT22;47127;47.516;8.596;2023-03-30T15:35:20;17.70;95.80
61253;DHT22;47127;47.516;8.596;2023-03-30T15:37:58;17.80;96.70
61253;DHT22;47127;47.516;8.596;2023-03-30T15:40:31;18.00;96.00
61253;DHT22;47127;47.516;8.596;2023-03-30T15:43:17;18.20;95.90
61253;DHT22;47127;47.516;8.596;2023-03-30T15:45:50;18.30;94.80
61253;DHT22;47127;47.516;8.596;2023-03-30T15:48:40;18.40;94.90
61253;DHT22;47127;47.516;8.596;2023-03-30T15:51:35;18.10;94.80
61253;DHT22;47127;47.516;8.596;2023-03-30T15:54:07;18.40;94.70
61253;DHT22;47127;47.516;8.596;2023-03-30T15:56:39;18.70;93.70
61253;DHT22;47127;47.516;8.596;2023-03-30T15:59:14;18.20;93.10
61253;DHT22;47127;47.516;8.596;2023-03-30T16:01:55;18.20;94.00
61253;DHT22;47127;47.516;8.596;2023-03-30T16:04:23;18.30;94.10
61253;DHT22;47127;47.516;8.596;2023-03-30T16:06:49;18.50;93.90
61253;DHT22;47127;47.516;8.596;2023-03-30T16:09:16;18.50;93.10
61253;DHT22;47127;47.516;8.596;2023-03-30T16:11:43;18.80;94.00
61253;DHT22;47127;47.516;8.596;2023-03-30T16:14:14;18.80;93.30
61253;DHT22;47127;47.516;8.596;2023-03-30T16:16:41;18.40;93.10
61253;DHT22;47127;47.516;8.596;2023-03-30T16:19:19;18.30;94.10
61253;DHT22;47127;47.516;8.596;2023-03-30T16:21:44;18.50;92.90
61253;DHT22;47127;47.516;8.596;2023-03-30T16:24:13;18.30;92.80
61253;DHT22;47127;47.516;8.596;2023-03-30T16:26:48;18.30;92.80
61253;DHT22;47127;47.516;8.596;2023-03-30T16:29:18;18.40;92.10
61253;DHT22;47127;47.516;8.596;2023-03-30T16:31:46;18.20;92.70
61253;DHT22;47127;47.516;8.596;2023-03-30T16:34:11;17.80;92.60
61253;DHT22;47127;47.516;8.596;2023-03-30T16:36:37;17.90;93.20
61253;DHT22;47127;47.516;8.596;2023-03-30T16:39:03;17.90;93.00
61253;DHT22;47127;47.516;8.596;2023-03-30T16:41:30;18.10;92.80
61253;DHT22;47127;47.516;8.596;2023-03-30T16:43:55;18.00;92.30
61253;DHT22;47127;47.516;8.596;2023-03-30T16:46:21;18.20;92.20
61253;DHT22;47127;47.516;8.596;2023-03-30T16:48:46;17.70;91.90
61253;DHT22;47127;47.516;8.596;2023-03-30T16:51:14;17.50;92.60
61253;DHT22;47127;47.516;8.596;2023-03-30T16:53:41;17.40;92.30
61253;DHT22;47127;47.516;8.596;2023-03-30T16:56:15;15.80;92.40
61253;DHT22;47127;47.516;8.596;2023-03-30T16:58:42;16.90;92.90
61253;DHT22;47127;47.516;8.596;2023-03-30T17:01:10;16.90;93.50
61253;DHT22;47127;47.516;8.596;2023-03-30T17:03:38;16.80;93.60
61253;DHT22;47127;47.516;8.596;2023-03-30T17:06:04;16.70;93.80
61253;DHT22;47127;47.516;8.596;2023-03-30T17:08:30;16.80;93.80
61253;DHT22;47127;47.516;8.596;2023-03-30T17:10:59;16.80;93.60
61253;DHT22;47127;47.516;8.596;2023-03-30T17:13:30;16.70;94.30
61253;DHT22;47127;47.516;8.596;2023-03-30T17:15:56;16.60;94.90
61253;DHT22;47127;47.516;8.596;2023-03-30T17:18:27;16.40;94.80
61253;DHT22;47127;47.516;8.596;2023-03-30T17:20:55;16.40;95.40
61253;DHT22;47127;47.516;8.596;2023-03-30T17:23:23;16.30;95.20
61253;DHT22;47127;47.516;8.596;2023-03-30T17:25:49;16.30;95.40
61253;DHT22;47127;47.516;8.596;2023-03-30T17:28:27;16.20;95.60
61253;DHT22;47127;47.516;8.596;2023-03-30T17:30:56;16.10;96.40
61253;DHT22;47127;47.516;8.596;2023-03-30T17:33:22;16.10;96.10
61253;DHT22;47127;47.516;8.596;2023-03-30T17:36:21;16.00;96.70
61253;DHT22;47127;47.516;8.596;2023-03-30T17:38:47;16.00;97.30
61253;DHT22;47127;47.516;8.596;2023-03-30T17:41:15;15.90;97.60
61253;DHT22;47127;47.516;8.596;2023-03-30T17:43:43;15.90;97.80
61253;DHT22;47127;47.516;8.596;2023-03-30T17:46:13;15.90;98.00
61253;DHT22;47127;47.516;8.596;2023-03-30T17:48:39;15.80;97.30
61253;DHT22;47127;47.516;8.596;2023-03-30T17:51:08;15.80;97.90
61253;DHT22;47127;47.516;8.596;2023-03-30T17:53:34;15.80;97.80
61253;DHT22;47127;47.516;8.596;2023-03-30T17:56:00;15.70;98.40
61253;DHT22;47127;47.516;8.596;2023-03-30T17:58:28;15.70;98.30
61253;DHT22;47127;47.516;8.596;2023-03-30T18:00:57;15.70;98.60
61253;DHT22;47127;47.516;8.596;2023-03-30T18:03:23;15.70;98.50
61253;DHT22;47127;47.516;8.596;2023-03-30T18:05:54;15.60;98.40
61253;DHT22;47127;47.516;8.596;2023-03-30T18:08:21;15.50;98.70
61253;DHT22;47127;47.516;8.596;2023-03-30T18:10:56;15.40;99.10
61253;DHT22;47127;47.516;8.596;2023-03-30T18:13:22;15.40;99.00
61253;DHT22;47127;47.516;8.596;2023-03-30T18:15:50;15.40;98.80
61253;DHT22;47127;47.516;8.596;2023-03-30T18:18:21;15.40;98.60